Svinoy — V7RM5 — position and weather

sailwx.info

Track history (hours):
 
Tides and Currents Weather Stations Pressure Air Temp Water Temp Dewpoint Dewpoint Depression Visibility Wind Speed Wind Dir Waves Ship Positions

Svinoy

Last reported at 2018-Feb-13 15:20 UTC. Time now 2018-Feb-17 21:53 UTC.
Position N 35°58' W 005°32'.

Length 190 m; draft 6.7 m.

Type: Cargo ship. MMSI: 538003541.

Date/timePositionNaut miles runAvg speedWind from/ knotsBaromVisibWave heightAir tempDewpointWater temp
2018-Feb-13 15:20N 35°58' W 005°32'310.4
2018-Feb-13 15:00N 35°59' W 005°29'5 9.6
2018-Feb-13 14:31N 36°00' W 005°23'5 9.5
2018-Feb-13 14:01N 36°01' W 005°17'9 0.5
2018-Feb-12 19:39N 36°03' W 005°06'212.2
2018-Feb-12 19:29N 36°02' W 005°09'611.7
2018-Feb-12 19:00N 36°03' W 005°16'611.8
2018-Feb-12 18:30N 36°06' W 005°22'2 3.0
2018-Feb-12 18:00N 36°08' W 005°22'0 0.1
2018-Feb-12 17:30N 36°08' W 005°22'0 0.0
2018-Feb-12 16:54N 36°08' W 005°22'0 0.1
2018-Feb-12 16:27N 36°08' W 005°22'0 0.0
2018-Feb-12 16:00N 36°08' W 005°22'0 0.0
2018-Feb-12 14:54N 36°08' W 005°22'0 0.0
2018-Feb-12 14:30N 36°08' W 005°22'0 0.1
2018-Feb-12 13:45N 36°08' W 005°22'0 0.1
2018-Feb-12 13:30N 36°08' W 005°22'0 0.1
2018-Feb-12 13:00N 36°08' W 005°22'0 0.0
2018-Feb-12 12:30N 36°08' W 005°22'0 0.1
2018-Feb-12 12:00N 36°08' W 005°22'0 0.1
2018-Feb-12 11:30N 36°08' W 005°22'0 0.0
2018-Feb-12 11:00N 36°08' W 005°22'0 0.0
2018-Feb-12 10:30N 36°08' W 005°22'0 0.1
2018-Feb-12 09:57N 36°08' W 005°22'0 0.1
2018-Feb-12 09:30N 36°08' W 005°22'0 0.0
2018-Feb-12 08:57N 36°08' W 005°22'0 0.0
2018-Feb-12 08:27N 36°08' W 005°22'0 0.2
2018-Feb-12 08:00N 36°08' W 005°22'0 0.1
2018-Feb-12 07:21N 36°08' W 005°22'0 0.1
2018-Feb-12 06:54N 36°08' W 005°22'0 0.0
2018-Feb-12 06:24N 36°08' W 005°22'0 0.2
2018-Feb-12 06:00N 36°08' W 005°22'0 0.3
2018-Feb-12 05:28N 36°07' W 005°22'2 5.3
2018-Feb-12 05:00N 36°05' W 005°21'4 7.4
2018-Feb-12 04:30N 36°04' W 005°17'510.3
2018-Feb-12 04:00N 36°04' W 005°11'21011.4
2018-Feb-11 09:32N 37°13' W 001°04'112.9
2018-Feb-11 09:28N 37°14' W 001°03'713.0
2018-Feb-11 08:57N 37°18' W 000°56'613.0
2018-Feb-11 08:30N 37°22' W 000°51'713.0
2018-Feb-11 08:00N 37°26' W 000°45'612.7
2018-Feb-11 07:30N 37°30' W 000°39'612.7
2018-Feb-11 07:00N 37°35' W 000°33'612.5
2018-Feb-11 06:30N 37°40' W 000°29'612.2
2018-Feb-11 06:00N 37°45' W 000°24'612.3
2018-Feb-11 05:30N 37°50' W 000°20'612.2
2018-Feb-11 04:59N 37°55' W 000°16'812.1
2018-Feb-11 04:22N 38°02' W 000°11'37212.5
2018-Feb-09 22:40N 42°58' E 004°46'212.3
2018-Feb-09 22:31N 42°59' E 004°48'1211.7
2018-Feb-09 21:31N 43°08' E 004°58'1111.4
2018-Feb-09 20:30N 43°20' E 004°58'5 9.9
2018-Feb-09 20:00N 43°24' E 004°54'2 4.7
2018-Feb-09 19:31N 43°26' E 004°52'0 0.0
2018-Feb-08 01:29N 43°26' E 004°52'0 0.0
2018-Feb-08 00:59N 43°26' E 004°52'0 0.0
2018-Feb-08 00:29N 43°26' E 004°52'0 0.0
2018-Feb-07 23:59N 43°26' E 004°52'0 0.0
2018-Feb-07 23:29N 43°26' E 004°52'0 0.0
2018-Feb-07 22:56N 43°26' E 004°52'0 0.0
2018-Feb-07 22:29N 43°26' E 004°52'0 0.0
2018-Feb-07 21:59N 43°26' E 004°52'0 0.0
2018-Feb-07 21:29N 43°26' E 004°52'0 0.0
2018-Feb-07 09:29N 43°26' E 004°52'0 0.0
2018-Feb-07 08:56N 43°26' E 004°52'0 0.0
2018-Feb-07 08:30N 43°26' E 004°52'1 1.8
2018-Feb-07 08:00N 43°25' E 004°53'2 4.0
2018-Feb-07 07:30N 43°24' E 004°55'4 8.1
2018-Feb-07 07:00N 43°21' E 004°59'1 1.5
2018-Feb-07 06:28N 43°20' E 005°00'0 0.1
2018-Feb-07 05:58N 43°20' E 004°60'0 0.0
2018-Feb-07 05:28N 43°20' E 004°60'0 0.0
2018-Feb-07 04:55N 43°20' E 004°60'0 0.0
2018-Feb-07 04:28N 43°20' E 004°60'0 0.0
2018-Feb-07 03:58N 43°20' E 004°60'0 0.0
2018-Feb-07 03:28N 43°20' E 004°60'0 0.0
2018-Feb-07 02:58N 43°20' E 004°60'0 0.0
2018-Feb-07 02:28N 43°20' E 004°60'0 0.0
2018-Feb-07 01:58N 43°20' E 004°60'0 0.0
2018-Feb-07 01:28N 43°20' E 004°60'0 0.0
2018-Feb-07 00:58N 43°20' E 004°60'0 0.0
2018-Feb-07 00:28N 43°20' E 004°60'0 0.0
2018-Feb-06 23:58N 43°20' E 004°60'0 0.0
2018-Feb-06 23:28N 43°20' E 004°60'0 0.0
2018-Feb-06 22:58N 43°20' E 004°60'0 0.0
2018-Feb-06 22:28N 43°20' E 004°60'0 0.0
2018-Feb-06 21:58N 43°20' E 004°60'0 0.0
2018-Feb-06 21:28N 43°20' E 004°60'0 0.0
2018-Feb-06 20:58N 43°20' E 004°60'0 0.0
2018-Feb-06 20:28N 43°20' E 005°00'0 0.0
2018-Feb-06 19:58N 43°20' E 004°60'0 0.0
2018-Feb-06 19:28N 43°21' E 005°00'0 0.0
2018-Feb-06 18:58N 43°21' E 004°60'0 0.0
2018-Feb-06 18:28N 43°20' E 004°60'0 0.0
2018-Feb-06 17:58N 43°20' E 004°60'0 0.0
2018-Feb-06 17:28N 43°20' E 004°60'0 0.0
2018-Feb-06 16:58N 43°20' E 004°60'0 0.0
2018-Feb-06 16:28N 43°20' E 004°60'0 0.0
2018-Feb-06 15:58N 43°20' E 004°60'0 0.0
2018-Feb-06 15:28N 43°21' E 004°60'0 0.0
2018-Feb-06 14:58N 43°21' E 004°60'0 0.2
2018-Feb-06 14:28N 43°21' E 004°60'0 0.1
2018-Feb-06 13:58N 43°21' E 005°00'0 0.1
2018-Feb-06 13:28N 43°21' E 004°60'0 0.0
2018-Feb-06 12:58N 43°21' E 004°60'0 0.0
2018-Feb-06 12:28N 43°21' E 004°60'0 0.0
2018-Feb-06 11:58N 43°21' E 004°60'0 0.1
2018-Feb-06 11:25N 43°21' E 004°60'0 0.0
2018-Feb-06 10:58N 43°21' E 004°60'0 0.0
2018-Feb-06 10:28N 43°21' E 004°60'0 0.1
2018-Feb-06 09:58N 43°21' E 005°00'0 0.0
2018-Feb-06 09:28N 43°21' E 005°00'0 0.0
2018-Feb-06 08:58N 43°21' E 005°00'0 0.1
2018-Feb-06 08:28N 43°21' E 005°00'0 0.0
2018-Feb-06 07:58N 43°21' E 005°00'0 0.0
2018-Feb-06 07:28N 43°21' E 005°00'0 0.1
2018-Feb-06 06:58N 43°21' E 004°60'0 0.1
2018-Feb-06 06:28N 43°21' E 004°60'0 0.0
2018-Feb-06 05:58N 43°21' E 004°60'0 0.0
2018-Feb-06 05:28N 43°21' E 004°60'0 0.1
2018-Feb-06 04:58N 43°21' E 004°60'0 0.1
2018-Feb-06 04:28N 43°21' E 004°60'0 0.0
2018-Feb-06 03:58N 43°21' E 004°60'0 0.1
2018-Feb-06 03:28N 43°21' E 004°60'0 0.0
2018-Feb-06 02:58N 43°21' E 004°60'0 0.0
2018-Feb-06 02:28N 43°21' E 004°60'0 0.0
2018-Feb-06 01:58N 43°21' E 004°60'0 0.1
2018-Feb-06 01:28N 43°21' E 004°60'0 0.1
2018-Feb-06 00:58N 43°21' E 004°60'0 0.0
2018-Feb-06 00:28N 43°21' E 004°60'0 0.1
2018-Feb-05 23:58N 43°21' E 004°60'0 0.0
2018-Feb-05 23:28N 43°21' E 004°60'0 0.1
2018-Feb-05 22:58N 43°21' E 004°60'0 0.1
2018-Feb-05 22:28N 43°21' E 004°60'0 0.0
2018-Feb-05 21:58N 43°21' E 004°60'0 0.1
2018-Feb-05 21:28N 43°21' E 004°60'0 0.0
2018-Feb-05 20:58N 43°21' E 004°60'0 0.1
2018-Feb-05 20:28N 43°21' E 004°60'0 0.0
2018-Feb-05 19:58N 43°21' E 004°60'0 0.0
2018-Feb-05 19:28N 43°21' E 004°60'0 0.0
2018-Feb-05 18:58N 43°21' E 004°60'0 0.0
2018-Feb-05 18:28N 43°21' E 004°60'0 0.0
2018-Feb-05 17:58N 43°21' E 004°60'0 0.0
2018-Feb-05 17:28N 43°21' E 004°60'0 0.0
2018-Feb-05 16:58N 43°21' E 004°60'0 0.0
2018-Feb-05 16:28N 43°21' E 004°60'0 0.1
2018-Feb-05 15:58N 43°21' E 004°60'0 0.0
2018-Feb-05 15:28N 43°21' E 004°60'0 0.0
2018-Feb-05 14:58N 43°21' E 004°60'0 0.0
2018-Feb-05 14:28N 43°21' E 004°60'0 0.2
2018-Feb-05 13:58N 43°21' E 004°60'0 0.1
2018-Feb-05 13:28N 43°21' E 004°60'0 0.0
2018-Feb-05 12:58N 43°21' E 004°60'0 0.0
2018-Feb-05 12:28N 43°21' E 004°60'0 0.0
2018-Feb-05 11:58N 43°21' E 004°60'0 0.0
2018-Feb-05 11:28N 43°21' E 004°60'0 0.0
2018-Feb-05 10:58N 43°21' E 004°60'0 0.0
2018-Feb-05 10:28N 43°21' E 004°60'0 0.0
2018-Feb-05 09:58N 43°21' E 004°60'0 0.0
2018-Feb-05 09:28N 43°21' E 004°60'0 0.0
2018-Feb-05 08:58N 43°21' E 004°60'0 0.0
2018-Feb-05 08:28N 43°21' E 004°60'0 0.0
2018-Feb-05 07:58N 43°21' E 004°60'0 0.0
2018-Feb-05 07:28N 43°21' E 004°60'0 0.0
2018-Feb-05 06:55N 43°21' E 004°60'0 0.0
2018-Feb-05 06:28N 43°21' E 004°60'0 0.0
2018-Feb-05 05:28N 43°21' E 004°60'0 0.0
2018-Feb-05 04:58N 43°21' E 004°60'0 0.0
2018-Feb-05 04:28N 43°21' E 004°60'0 0.0
2018-Feb-05 03:58N 43°21' E 004°60'0 0.0
2018-Feb-05 03:28N 43°21' E 004°60'0 0.0
2018-Feb-05 02:58N 43°21' E 004°60'0 0.0
2018-Feb-05 02:28N 43°21' E 004°60'0 0.1
2018-Feb-05 01:58N 43°21' E 004°60'0 0.1
2018-Feb-05 01:28N 43°21' E 004°60'0 0.0
2018-Feb-05 00:58N 43°21' E 004°60'0 0.0
2018-Feb-05 00:28N 43°21' E 004°60'0 0.0
2018-Feb-04 23:58N 43°21' E 004°60'0 0.0
2018-Feb-04 23:28N 43°21' E 004°60'0 0.0
2018-Feb-04 22:58N 43°21' E 004°60'0 0.0
2018-Feb-04 22:28N 43°21' E 004°60'0 0.0
2018-Feb-04 21:58N 43°21' E 004°60'0 0.0
2018-Feb-04 21:28N 43°21' E 004°60'0 0.1
2018-Feb-04 20:58N 43°21' E 004°60'0 0.1
2018-Feb-04 19:58N 43°21' E 005°00'0 0.1
2018-Feb-04 19:28N 43°21' E 005°00'0 0.1
2018-Feb-04 18:58N 43°21' E 005°00'0 0.0
2018-Feb-04 18:28N 43°21' E 005°00'0 0.0
2018-Feb-04 17:58N 43°21' E 005°00'0 0.0
2018-Feb-04 17:28N 43°21' E 005°00'0 0.0
2018-Feb-04 15:28N 43°21' E 005°00'0 0.0
2018-Feb-04 14:58N 43°21' E 005°00'0 0.0
2018-Feb-04 14:28N 43°21' E 005°00'0 0.0
2018-Feb-04 13:58N 43°21' E 005°00'0 0.1
2018-Feb-04 13:28N 43°21' E 005°00'0 0.1
2018-Feb-04 12:58N 43°21' E 005°00'0 0.1
2018-Feb-04 12:28N 43°21' E 004°60'0 0.1
2018-Feb-04 11:58N 43°21' E 004°60'0 0.1
2018-Feb-04 11:28N 43°21' E 004°60'0 0.0
2018-Feb-04 09:58N 43°21' E 004°60'0 0.0
2018-Feb-04 08:58N 43°21' E 004°60'0 0.1
2018-Feb-04 08:28N 43°20' E 004°60'0 0.2
2018-Feb-04 07:58N 43°20' E 005°00'0 0.1
2018-Feb-04 07:28N 43°21' E 005°00'0 0.1
2018-Feb-04 06:58N 43°21' E 005°00'0 0.0
2018-Feb-04 06:28N 43°21' E 005°00'0 0.0
2018-Feb-04 05:58N 43°21' E 005°00'0 0.0
2018-Feb-04 05:28N 43°21' E 005°00'0 0.0
2018-Feb-04 04:58N 43°21' E 005°00'0 0.0
2018-Feb-04 04:28N 43°21' E 005°00'0 0.0
2018-Feb-04 03:58N 43°21' E 005°00'0 0.0
2018-Feb-04 03:28N 43°21' E 005°00'0 0.0
2018-Feb-04 02:58N 43°21' E 005°00'0 0.2
2018-Feb-04 02:28N 43°20' E 005°00'0 0.1
2018-Feb-04 01:58N 43°20' E 005°00'0 0.0
2018-Feb-04 01:28N 43°20' E 005°00'0 0.0
2018-Feb-04 00:58N 43°20' E 005°00'0 0.1
2018-Feb-04 00:28N 43°20' E 005°00'0 0.0
2018-Feb-03 23:58N 43°20' E 005°00'0 0.0
2018-Feb-03 23:28N 43°20' E 005°00'0 0.0
2018-Feb-03 22:58N 43°20' E 005°00'0 0.0
2018-Feb-03 22:28N 43°20' E 005°00'0 0.0
2018-Feb-03 21:58N 43°20' E 005°00'0 0.0
2018-Feb-03 21:28N 43°20' E 005°00'0 0.0
2018-Feb-03 20:58N 43°20' E 005°00'0 0.0
2018-Feb-03 20:28N 43°20' E 005°00'0 0.0
2018-Feb-03 19:58N 43°20' E 005°00'0 0.0
2018-Feb-03 18:28N 43°20' E 005°00'0 0.0
2018-Feb-03 17:58N 43°20' E 005°00'0 0.0
2018-Feb-03 17:28N 43°20' E 005°00'0 0.0
2018-Feb-03 16:58N 43°20' E 005°00'0 0.0
2018-Feb-03 15:58N 43°20' E 005°00'0 0.0
2018-Feb-03 15:28N 43°20' E 005°00'  
Track history (hours):
 
Tides and Currents Weather Stations Pressure Air Temp Water Temp Dewpoint Dewpoint Depression Visibility Wind Speed Wind Dir Waves Ship Positions

Svinoy

Last reported at 2018-Feb-13 15:20 UTC. Time now 2018-Feb-17 21:53 UTC.
Position N 35°58' W 005°32'.

Length 190 m; draft 6.7 m.

Type: Cargo ship. MMSI: 538003541.

Date/timePositionNaut miles runAvg speedWind from/ knotsBaromVisibWave heightAir tempDewpointWater temp
2018-Feb-13 15:20N 35°58' W 005°32'310.4
2018-Feb-13 15:00N 35°59' W 005°29'5 9.6
2018-Feb-13 14:31N 36°00' W 005°23'5 9.5
2018-Feb-13 14:01N 36°01' W 005°17'9 0.5
2018-Feb-12 19:39N 36°03' W 005°06'212.2
2018-Feb-12 19:29N 36°02' W 005°09'611.7
2018-Feb-12 19:00N 36°03' W 005°16'611.8
2018-Feb-12 18:30N 36°06' W 005°22'2 3.0
2018-Feb-12 18:00N 36°08' W 005°22'0 0.1
2018-Feb-12 17:30N 36°08' W 005°22'0 0.0
2018-Feb-12 16:54N 36°08' W 005°22'0 0.1
2018-Feb-12 16:27N 36°08' W 005°22'0 0.0
2018-Feb-12 16:00N 36°08' W 005°22'0 0.0
2018-Feb-12 14:54N 36°08' W 005°22'0 0.0
2018-Feb-12 14:30N 36°08' W 005°22'0 0.1
2018-Feb-12 13:45N 36°08' W 005°22'0 0.1
2018-Feb-12 13:30N 36°08' W 005°22'0 0.1
2018-Feb-12 13:00N 36°08' W 005°22'0 0.0
2018-Feb-12 12:30N 36°08' W 005°22'0 0.1
2018-Feb-12 12:00N 36°08' W 005°22'0 0.1
2018-Feb-12 11:30N 36°08' W 005°22'0 0.0
2018-Feb-12 11:00N 36°08' W 005°22'0 0.0
2018-Feb-12 10:30N 36°08' W 005°22'0 0.1
2018-Feb-12 09:57N 36°08' W 005°22'0 0.1
2018-Feb-12 09:30N 36°08' W 005°22'0 0.0
2018-Feb-12 08:57N 36°08' W 005°22'0 0.0
2018-Feb-12 08:27N 36°08' W 005°22'0 0.2
2018-Feb-12 08:00N 36°08' W 005°22'0 0.1
2018-Feb-12 07:21N 36°08' W 005°22'0 0.1
2018-Feb-12 06:54N 36°08' W 005°22'0 0.0
2018-Feb-12 06:24N 36°08' W 005°22'0 0.2
2018-Feb-12 06:00N 36°08' W 005°22'0 0.3
2018-Feb-12 05:28N 36°07' W 005°22'2 5.3
2018-Feb-12 05:00N 36°05' W 005°21'4 7.4
2018-Feb-12 04:30N 36°04' W 005°17'510.3
2018-Feb-12 04:00N 36°04' W 005°11'21011.4
2018-Feb-11 09:32N 37°13' W 001°04'112.9
2018-Feb-11 09:28N 37°14' W 001°03'713.0
2018-Feb-11 08:57N 37°18' W 000°56'613.0
2018-Feb-11 08:30N 37°22' W 000°51'713.0
2018-Feb-11 08:00N 37°26' W 000°45'612.7
2018-Feb-11 07:30N 37°30' W 000°39'612.7
2018-Feb-11 07:00N 37°35' W 000°33'612.5
2018-Feb-11 06:30N 37°40' W 000°29'612.2
2018-Feb-11 06:00N 37°45' W 000°24'612.3
2018-Feb-11 05:30N 37°50' W 000°20'612.2
2018-Feb-11 04:59N 37°55' W 000°16'812.1
2018-Feb-11 04:22N 38°02' W 000°11'37212.5
2018-Feb-09 22:40N 42°58' E 004°46'212.3
2018-Feb-09 22:31N 42°59' E 004°48'1211.7
2018-Feb-09 21:31N 43°08' E 004°58'1111.4
2018-Feb-09 20:30N 43°20' E 004°58'5 9.9
2018-Feb-09 20:00N 43°24' E 004°54'2 4.7
2018-Feb-09 19:31N 43°26' E 004°52'0 0.0
2018-Feb-08 01:29N 43°26' E 004°52'0 0.0
2018-Feb-08 00:59N 43°26' E 004°52'0 0.0
2018-Feb-08 00:29N 43°26' E 004°52'0 0.0
2018-Feb-07 23:59N 43°26' E 004°52'0 0.0
2018-Feb-07 23:29N 43°26' E 004°52'0 0.0
2018-Feb-07 22:56N 43°26' E 004°52'0 0.0
2018-Feb-07 22:29N 43°26' E 004°52'0 0.0
2018-Feb-07 21:59N 43°26' E 004°52'0 0.0
2018-Feb-07 21:29N 43°26' E 004°52'0 0.0
2018-Feb-07 09:29N 43°26' E 004°52'0 0.0
2018-Feb-07 08:56N 43°26' E 004°52'0 0.0
2018-Feb-07 08:30N 43°26' E 004°52'1 1.8
2018-Feb-07 08:00N 43°25' E 004°53'2 4.0
2018-Feb-07 07:30N 43°24' E 004°55'4 8.1
2018-Feb-07 07:00N 43°21' E 004°59'1 1.5
2018-Feb-07 06:28N 43°20' E 005°00'0 0.1
2018-Feb-07 05:58N 43°20' E 004°60'0 0.0
2018-Feb-07 05:28N 43°20' E 004°60'0 0.0
2018-Feb-07 04:55N 43°20' E 004°60'0 0.0
2018-Feb-07 04:28N 43°20' E 004°60'0 0.0
2018-Feb-07 03:58N 43°20' E 004°60'0 0.0
2018-Feb-07 03:28N 43°20' E 004°60'0 0.0
2018-Feb-07 02:58N 43°20' E 004°60'0 0.0
2018-Feb-07 02:28N 43°20' E 004°60'0 0.0
2018-Feb-07 01:58N 43°20' E 004°60'0 0.0
2018-Feb-07 01:28N 43°20' E 004°60'0 0.0
2018-Feb-07 00:58N 43°20' E 004°60'0 0.0
2018-Feb-07 00:28N 43°20' E 004°60'0 0.0
2018-Feb-06 23:58N 43°20' E 004°60'0 0.0
2018-Feb-06 23:28N 43°20' E 004°60'0 0.0
2018-Feb-06 22:58N 43°20' E 004°60'0 0.0
2018-Feb-06 22:28N 43°20' E 004°60'0 0.0
2018-Feb-06 21:58N 43°20' E 004°60'0 0.0
2018-Feb-06 21:28N 43°20' E 004°60'0 0.0
2018-Feb-06 20:58N 43°20' E 004°60'0 0.0
2018-Feb-06 20:28N 43°20' E 005°00'0 0.0
2018-Feb-06 19:58N 43°20' E 004°60'0 0.0
2018-Feb-06 19:28N 43°21' E 005°00'0 0.0
2018-Feb-06 18:58N 43°21' E 004°60'0 0.0
2018-Feb-06 18:28N 43°20' E 004°60'0 0.0
2018-Feb-06 17:58N 43°20' E 004°60'0 0.0
2018-Feb-06 17:28N 43°20' E 004°60'0 0.0
2018-Feb-06 16:58N 43°20' E 004°60'0 0.0
2018-Feb-06 16:28N 43°20' E 004°60'0 0.0
2018-Feb-06 15:58N 43°20' E 004°60'0 0.0
2018-Feb-06 15:28N 43°21' E 004°60'0 0.0
2018-Feb-06 14:58N 43°21' E 004°60'0 0.2
2018-Feb-06 14:28N 43°21' E 004°60'0 0.1
2018-Feb-06 13:58N 43°21' E 005°00'0 0.1
2018-Feb-06 13:28N 43°21' E 004°60'0 0.0
2018-Feb-06 12:58N 43°21' E 004°60'0 0.0
2018-Feb-06 12:28N 43°21' E 004°60'0 0.0
2018-Feb-06 11:58N 43°21' E 004°60'0 0.1
2018-Feb-06 11:25N 43°21' E 004°60'0 0.0
2018-Feb-06 10:58N 43°21' E 004°60'0 0.0
2018-Feb-06 10:28N 43°21' E 004°60'0 0.1
2018-Feb-06 09:58N 43°21' E 005°00'0 0.0
2018-Feb-06 09:28N 43°21' E 005°00'0 0.0
2018-Feb-06 08:58N 43°21' E 005°00'0 0.1
2018-Feb-06 08:28N 43°21' E 005°00'0 0.0
2018-Feb-06 07:58N 43°21' E 005°00'0 0.0
2018-Feb-06 07:28N 43°21' E 005°00'0 0.1
2018-Feb-06 06:58N 43°21' E 004°60'0 0.1
2018-Feb-06 06:28N 43°21' E 004°60'0 0.0
2018-Feb-06 05:58N 43°21' E 004°60'0 0.0
2018-Feb-06 05:28N 43°21' E 004°60'0 0.1
2018-Feb-06 04:58N 43°21' E 004°60'0 0.1
2018-Feb-06 04:28N 43°21' E 004°60'0 0.0
2018-Feb-06 03:58N 43°21' E 004°60'0 0.1
2018-Feb-06 03:28N 43°21' E 004°60'0 0.0
2018-Feb-06 02:58N 43°21' E 004°60'0 0.0
2018-Feb-06 02:28N 43°21' E 004°60'0 0.0
2018-Feb-06 01:58N 43°21' E 004°60'0 0.1
2018-Feb-06 01:28N 43°21' E 004°60'0 0.1
2018-Feb-06 00:58N 43°21' E 004°60'0 0.0
2018-Feb-06 00:28N 43°21' E 004°60'0 0.1
2018-Feb-05 23:58N 43°21' E 004°60'0 0.0
2018-Feb-05 23:28N 43°21' E 004°60'0 0.1
2018-Feb-05 22:58N 43°21' E 004°60'0 0.1
2018-Feb-05 22:28N 43°21' E 004°60'0 0.0
2018-Feb-05 21:58N 43°21' E 004°60'0 0.1
2018-Feb-05 21:28N 43°21' E 004°60'0 0.0
2018-Feb-05 20:58N 43°21' E 004°60'0 0.1
2018-Feb-05 20:28N 43°21' E 004°60'0 0.0
2018-Feb-05 19:58N 43°21' E 004°60'0 0.0
2018-Feb-05 19:28N 43°21' E 004°60'0 0.0
2018-Feb-05 18:58N 43°21' E 004°60'0 0.0
2018-Feb-05 18:28N 43°21' E 004°60'0 0.0
2018-Feb-05 17:58N 43°21' E 004°60'0 0.0
2018-Feb-05 17:28N 43°21' E 004°60'0 0.0
2018-Feb-05 16:58N 43°21' E 004°60'0 0.0
2018-Feb-05 16:28N 43°21' E 004°60'0 0.1
2018-Feb-05 15:58N 43°21' E 004°60'0 0.0
2018-Feb-05 15:28N 43°21' E 004°60'0 0.0
2018-Feb-05 14:58N 43°21' E 004°60'0 0.0
2018-Feb-05 14:28N 43°21' E 004°60'0 0.2
2018-Feb-05 13:58N 43°21' E 004°60'0 0.1
2018-Feb-05 13:28N 43°21' E 004°60'0 0.0
2018-Feb-05 12:58N 43°21' E 004°60'0 0.0
2018-Feb-05 12:28N 43°21' E 004°60'0 0.0
2018-Feb-05 11:58N 43°21' E 004°60'0 0.0
2018-Feb-05 11:28N 43°21' E 004°60'0 0.0
2018-Feb-05 10:58N 43°21' E 004°60'0 0.0
2018-Feb-05 10:28N 43°21' E 004°60'0 0.0
2018-Feb-05 09:58N 43°21' E 004°60'0 0.0
2018-Feb-05 09:28N 43°21' E 004°60'0 0.0
2018-Feb-05 08:58N 43°21' E 004°60'0 0.0
2018-Feb-05 08:28N 43°21' E 004°60'0 0.0
2018-Feb-05 07:58N 43°21' E 004°60'0 0.0
2018-Feb-05 07:28N 43°21' E 004°60'0 0.0
2018-Feb-05 06:55N 43°21' E 004°60'0 0.0
2018-Feb-05 06:28N 43°21' E 004°60'0 0.0
2018-Feb-05 05:28N 43°21' E 004°60'0 0.0
2018-Feb-05 04:58N 43°21' E 004°60'0 0.0
2018-Feb-05 04:28N 43°21' E 004°60'0 0.0
2018-Feb-05 03:58N 43°21' E 004°60'0 0.0
2018-Feb-05 03:28N 43°21' E 004°60'0 0.0
2018-Feb-05 02:58N 43°21' E 004°60'0 0.0
2018-Feb-05 02:28N 43°21' E 004°60'0 0.1
2018-Feb-05 01:58N 43°21' E 004°60'0 0.1
2018-Feb-05 01:28N 43°21' E 004°60'0 0.0
2018-Feb-05 00:58N 43°21' E 004°60'0 0.0
2018-Feb-05 00:28N 43°21' E 004°60'0 0.0
2018-Feb-04 23:58N 43°21' E 004°60'0 0.0
2018-Feb-04 23:28N 43°21' E 004°60'0 0.0
2018-Feb-04 22:58N 43°21' E 004°60'0 0.0
2018-Feb-04 22:28N 43°21' E 004°60'0 0.0
2018-Feb-04 21:58N 43°21' E 004°60'0 0.0
2018-Feb-04 21:28N 43°21' E 004°60'0 0.1
2018-Feb-04 20:58N 43°21' E 004°60'0 0.1
2018-Feb-04 19:58N 43°21' E 005°00'0 0.1
2018-Feb-04 19:28N 43°21' E 005°00'0 0.1
2018-Feb-04 18:58N 43°21' E 005°00'0 0.0
2018-Feb-04 18:28N 43°21' E 005°00'0 0.0
2018-Feb-04 17:58N 43°21' E 005°00'0 0.0
2018-Feb-04 17:28N 43°21' E 005°00'0 0.0
2018-Feb-04 15:28N 43°21' E 005°00'0 0.0
2018-Feb-04 14:58N 43°21' E 005°00'0 0.0
2018-Feb-04 14:28N 43°21' E 005°00'0 0.0
2018-Feb-04 13:58N 43°21' E 005°00'0 0.1
2018-Feb-04 13:28N 43°21' E 005°00'0 0.1
2018-Feb-04 12:58N 43°21' E 005°00'0 0.1
2018-Feb-04 12:28N 43°21' E 004°60'0 0.1
2018-Feb-04 11:58N 43°21' E 004°60'0 0.1
2018-Feb-04 11:28N 43°21' E 004°60'0 0.0
2018-Feb-04 09:58N 43°21' E 004°60'0 0.0
2018-Feb-04 08:58N 43°21' E 004°60'0 0.1
2018-Feb-04 08:28N 43°20' E 004°60'0 0.2
2018-Feb-04 07:58N 43°20' E 005°00'0 0.1
2018-Feb-04 07:28N 43°21' E 005°00'0 0.1
2018-Feb-04 06:58N 43°21' E 005°00'0 0.0
2018-Feb-04 06:28N 43°21' E 005°00'0 0.0
2018-Feb-04 05:58N 43°21' E 005°00'0 0.0
2018-Feb-04 05:28N 43°21' E 005°00'0 0.0
2018-Feb-04 04:58N 43°21' E 005°00'0 0.0
2018-Feb-04 04:28N 43°21' E 005°00'0 0.0
2018-Feb-04 03:58N 43°21' E 005°00'0 0.0
2018-Feb-04 03:28N 43°21' E 005°00'0 0.0
2018-Feb-04 02:58N 43°21' E 005°00'0 0.2
2018-Feb-04 02:28N 43°20' E 005°00'0 0.1
2018-Feb-04 01:58N 43°20' E 005°00'0 0.0
2018-Feb-04 01:28N 43°20' E 005°00'0 0.0
2018-Feb-04 00:58N 43°20' E 005°00'0 0.1
2018-Feb-04 00:28N 43°20' E 005°00'0 0.0
2018-Feb-03 23:58N 43°20' E 005°00'0 0.0
2018-Feb-03 23:28N 43°20' E 005°00'0 0.0
2018-Feb-03 22:58N 43°20' E 005°00'0 0.0
2018-Feb-03 22:28N 43°20' E 005°00'0 0.0
2018-Feb-03 21:58N 43°20' E 005°00'0 0.0
2018-Feb-03 21:28N 43°20' E 005°00'0 0.0
2018-Feb-03 20:58N 43°20' E 005°00'0 0.0
2018-Feb-03 20:28N 43°20' E 005°00'0 0.0
2018-Feb-03 19:58N 43°20' E 005°00'0 0.0
2018-Feb-03 18:28N 43°20' E 005°00'0 0.0
2018-Feb-03 17:58N 43°20' E 005°00'0 0.0
2018-Feb-03 17:28N 43°20' E 005°00'0 0.0
2018-Feb-03 16:58N 43°20' E 005°00'0 0.0
2018-Feb-03 15:58N 43°20' E 005°00'0 0.0
2018-Feb-03 15:28N 43°20' E 005°00'  

Dump ship's entire track history